x

Sabine Pass, Tx (srst2) Weather Station

9:00pm - Fri 21st Jul 2017 All times are CDT. -5 hours from GMT.

  • Wind
    7mph, 9mph gusts
  • Air Temp 85°f
  • Sea Pressure 1015.1mb
  • Sabine Pass, Tx
  • Sabine Pass, Tx

More Historic Weather Station data

Upgrade to MSW Pro to gain access to the past 30 days of data for over 8000 Wavebouys and Weather Stations around the globe.

Join Pro

Comparision Forecast

View Surf forecast
   
Fri 07/21 9:00pm 7 9 mph 1015.1mb 85f
8:00pm 7 9 mph 1015.1mb 86f
7:00pm 10 14 mph 1015.2mb 86f
6:00pm 8 9 mph 1015.4mb 87f
5:00pm 8 9 mph 1015.8mb 87f
4:00pm 6 7 mph 1015.9mb 87f
3:00pm 6 9 mph 1017mb 87f
2:00pm 8 10 mph 1017mb 86f
1:00pm 10 11 mph 1017.3mb 87f
12:00pm 7 9 mph 1017.7mb 87f
11:00am 7 8 mph 1017.8mb 88f
10:00am 3 6 mph 1018mb 87f
9:00am 8 10 mph 1018.2mb 85f
8:00am 5 6 mph 1018.1mb 81f
7:00am 6 7 mph 1017.5mb 80f
6:00am 3 3 mph 1016.7mb 81f
5:00am 3 3 mph 1016.6mb 80f
4:00am 3 5 mph 1016.5mb 80f
3:00am 3 5 mph 1016.7mb 81f
2:00am 5 5 mph 1017.1mb 82f
1:00am 6 7 mph 1017.3mb 84f
12:00am 3 5 mph 1017.5mb 83f
Thu 07/20 11:00pm 7 9 mph 1017.5mb 86f
10:00pm 8 9 mph 1017.2mb 86f
9:00pm 9 10 mph 1016.9mb 86f
8:00pm 7 9 mph 1016.6mb 86f
7:00pm 9 11 mph 1016.8mb 87f
6:00pm 9 11 mph 1016.9mb 88f
5:00pm 10 13 mph 1017.3mb 87f
4:00pm 9 11 mph 1018mb 88f
3:00pm 9 11 mph 1018.7mb 88f
2:00pm 11 14 mph 1019.3mb 88f
1:00pm 10 13 mph 1019.6mb 87f
12:00pm 3 7 mph 1020.1mb 90f
11:00am 14 20 mph 1020.6mb 86f
10:00am 6 8 mph 1020.8mb 87f
9:00am 7 9 mph 1021mb 85f
8:00am 6 7 mph 1020.8mb 82f
7:00am 5 6 mph 1020.1mb 80f
6:00am 5 5 mph 1019.7mb 79f
5:00am 3 3 mph 1019.5mb 81f
4:00am 3 5 mph 1019.3mb 82f
3:00am 6 7 mph 1019.4mb 83f
2:00am 8 9 mph 1019.3mb 84f
1:00am 7 9 mph 1019.5mb 84f
12:00am 7 8 mph 1019.1mb 84f
Wed 07/19 11:00pm 6 8 mph 1018.9mb 85f
10:00pm 7 8 mph 1018.5mb 85f
9:00pm 7 8 mph 1018.4mb 85f
8:00pm 8 10 mph 1018.5mb 85f
7:00pm 7 9 mph 1018.3mb 86f
6:00pm 9 11 mph 1018.4mb 87f
5:00pm 8 10 mph 1018.6mb 87f
4:00pm 8 11 mph 1019.1mb 87f
3:00pm 10 11 mph 1019.8mb 87f
2:00pm 10 14 mph 1020.3mb 87f
1:00pm 8 10 mph 1020.9mb 87f
12:00pm 9 10 mph 1021.3mb 86f
11:00am 6 8 mph 1021.3mb 87f
10:00am 2 3 mph 1021.2mb 85f
9:00am 6 7 mph 1021.4mb 84f
8:00am 3 5 mph 1020.8mb 81f
7:00am 3 3 mph 1020.1mb 78f
6:00am 5 5 mph 1019.7mb 79f
5:00am 3 3 mph 1019.1mb 79f
4:00am 6 6 mph 1019mb 79f
3:00am 7 8 mph 1018.6mb 83f
2:00am 6 8 mph 1018.7mb 83f
1:00am 8 9 mph 1018.8mb 83f
12:00am 7 8 mph 1018.8mb 83f
Tue 07/18 11:00pm 5 6 mph 1018.5mb 83f
10:00pm 6 8 mph 1018.2mb 84f
9:00pm 3 5 mph 1017.6mb 83f
8:00pm 3 5 mph 1017mb 83f
7:00pm 6 7 mph 1017mb 84f
6:00pm 7 9 mph 1017mb 85f
5:00pm 7 10 mph 1017.3mb 85f
4:00pm 7 8 mph 1017.3mb 84f
3:00pm 6 8 mph 1017.7mb 85f
2:00pm 5 6 mph 1018.3mb 82f
1:00pm 2 2 mph 1018.6mb 79f
12:00pm 9 11 mph 1018.4mb 78f
11:00am 9 11 mph 1019mb 77f
10:00am 15 18 mph 1019.5mb 78f
9:00am 17 21 mph 1019.2mb 79f
8:00am 7 8 mph 1017.7mb 78f
7:00am 5 6 mph 1016.4mb 78f
6:00am 7 10 mph 1016.3mb 77f
5:00am 5 6 mph 1015.6mb 80f
4:00am 6 8 mph 1015.6mb 83f